Time;durP1;ratioP1;P1;durP2;ratioP2;P2;SDS_P1;SDS_P2;PMS_P1;PMS_P2;Temp;Humidity;BMP_temperature;BMP_pressure;BME280_temperature;BME280_humidity;BME280_pressure;Samples;Min_cycle;Max_cycle;Signal;HPM_P1;HPM_P2
2022/09/13 00:02:00;;;;;;;49.17;32.67;;;;;;;8.59;79.64;100160.28;5093158;28;20036;-79
2022/09/13 00:04:26;;;;;;;51.47;34.55;;;;;;;8.59;79.50;100158.50;5091949;28;20522;-79
2022/09/13 00:06:52;;;;;;;47.08;32.13;;;;;;;8.64;79.17;100160.88;5074826;28;20123;-79
2022/09/13 00:09:18;;;;;;;44.53;28.25;;;;;;;8.59;79.33;100147.81;5091766;28;20048;-78
2022/09/13 00:11:43;;;;;;;44.50;28.27;;;;;;;8.65;79.43;100158.13;5074962;28;20079;-78
2022/09/13 00:14:09;;;;;;;66.60;37.28;;;;;;;8.72;78.96;100158.59;5091325;28;20127;-78
2022/09/13 00:16:36;;;;;;;58.72;34.90;;;;;;;8.75;78.80;100153.97;5075403;28;20097;-77
2022/09/13 00:19:02;;;;;;;69.35;42.22;;;;;;;8.85;78.68;100161.41;5074757;28;20036;-79
2022/09/13 00:21:28;;;;;;;56.55;35.03;;;;;;;8.91;78.62;100171.69;5092812;28;20083;-78
2022/09/13 00:23:54;;;;;;;64.45;34.35;;;;;;;8.96;78.44;100167.81;5074725;28;20075;-79
2022/09/13 00:26:24;;;;;;;58.10;35.67;;;;;;;9.00;77.82;100164.03;5092656;28;20047;-78
2022/09/13 00:28:51;;;;;;;57.55;36.20;;;;;;;9.07;77.71;100166.31;5074577;28;20452;-79
2022/09/13 00:31:18;;;;;;;57.75;32.67;;;;;;;9.10;77.81;100160.78;5091344;28;20039;-78
2022/09/13 00:33:44;;;;;;;53.55;34.47;;;;;;;9.14;77.28;100171.19;5091706;28;20043;-79
2022/09/13 00:36:11;;;;;;;65.50;38.85;;;;;;;9.11;77.43;100171.38;5074823;28;20491;-80
2022/09/13 00:38:41;;;;;;;62.60;38.22;;;;;;;9.02;77.71;100171.06;5057843;28;20487;-79
2022/09/13 00:41:11;;;;;;;62.30;37.53;;;;;;;9.07;77.64;100163.66;5074582;28;20051;-79
2022/09/13 00:43:49;;;;;;;57.85;34.13;;;;;;;9.06;77.42;100156.59;5074354;28;20192;-80
2022/09/13 00:46:38;;;;;;;51.22;32.50;;;;;;;9.08;77.64;100170.69;5074475;28;20079;-78
2022/09/13 00:49:17;;;;;;;57.63;34.55;;;;;;;9.08;77.80;100176.03;5074208;28;20110;-78
2022/09/13 00:51:49;;;;;;;55.47;32.70;;;;;;;9.02;77.57;100173.72;5058070;28;20048;-79
2022/09/13 00:54:17;;;;;;;59.90;33.92;;;;;;;9.00;77.69;100172.03;5057636;28;20044;-81
2022/09/13 00:56:49;;;;;;;52.92;33.40;;;;;;;9.02;77.60;100171.06;5091432;28;20040;-80
2022/09/13 00:59:26;;;;;;;49.97;29.42;;;;;;;9.11;77.80;100181.19;5074339;28;20055;-81
2022/09/13 01:01:55;;;;;;;60.30;31.80;;;;;;;9.04;77.76;100163.84;5058022;28;20063;-81
2022/09/13 01:04:25;;;;;;;51.65;34.55;;;;;;;9.06;77.50;100173.44;5092479;28;20120;-82
2022/09/13 01:06:54;;;;;;;65.07;38.72;;;;;;;8.93;77.79;100168.00;5093935;28;20036;-81
2022/09/13 01:09:21;;;;;;;69.10;41.75;;;;;;;8.98;77.43;100167.72;5096036;28;20176;-80
2022/09/13 01:11:59;;;;;;;67.53;41.80;;;;;;;8.92;77.46;100171.63;5095024;28;20044;-79
2022/09/13 01:14:26;;;;;;;75.22;46.25;;;;;;;8.74;78.17;100170.91;5095652;28;20047;-79
2022/09/13 01:16:53;;;;;;;82.43;50.00;;;;;;;8.63;78.09;100170.69;5095675;28;20073;-81
2022/09/13 01:19:19;;;;;;;83.55;50.60;;;;;;;8.56;78.37;100173.78;5094945;28;20071;-79
2022/09/13 01:22:03;;;;;;;81.45;48.55;;;;;;;8.48;78.45;100176.91;5094664;28;20074;-80
2022/09/13 01:25:15;;;;;;;81.68;47.92;;;;;;;8.45;78.40;100166.41;5094379;28;20093;-80
2022/09/13 01:27:49;;;;;;;73.97;45.92;;;;;;;8.37;78.30;100174.84;5089286;28;20136;-81
2022/09/13 01:30:20;;;;;;;84.70;48.80;;;;;;;8.24;78.57;100163.19;5094291;28;20047;-79
2022/09/13 01:33:05;;;;;;;84.90;47.92;;;;;;;8.21;78.64;100164.19;5077412;28;20036;-79
2022/09/13 01:36:07;;;;;;;86.35;50.10;;;;;;;8.20;78.94;100177.63;5094185;28;20483;-80
2022/09/13 01:38:56;;;;;;;83.53;50.90;;;;;;;8.21;78.53;100179.31;5094672;28;20058;-81
2022/09/13 01:41:31;;;;;;;84.63;51.33;;;;;;;8.25;77.99;100181.72;5094162;28;20514;-80
2022/09/13 01:44:08;;;;;;;89.45;49.13;;;;;;;8.27;77.99;100177.19;5060581;28;20050;-80
2022/09/13 01:46:43;;;;;;;86.28;51.58;;;;;;;8.32;77.75;100182.25;5094039;28;20130;-79
2022/09/13 01:49:31;;;;;;;89.93;48.10;;;;;;;8.21;78.12;100168.69;5060594;28;20086;-80
2022/09/13 01:52:08;;;;;;;93.50;47.60;;;;;;;8.17;78.67;100175.13;5077012;28;20039;-80
2022/09/13 01:55:00;;;;;;;87.68;51.63;;;;;;;8.19;78.77;100167.88;5077115;28;20176;-80
2022/09/13 01:57:47;;;;;;;83.00;47.53;;;;;;;8.27;78.32;100170.97;5060156;28;20461;-81
2022/09/13 02:00:17;;;;;;;77.55;44.13;;;;;;;8.35;78.24;100168.75;5095164;28;20040;-81
2022/09/13 02:02:56;;;;;;;88.63;45.65;;;;;;;8.59;78.16;100179.81;5095087;28;20054;-80
2022/09/13 02:05:25;;;;;;;;;;;;;;;8.62;77.77;100184.09;5094248;28;20082;-79
2022/09/13 02:07:59;;;;;;;84.50;37.53;;;;;;;8.48;78.39;100188.41;5093374;28;20019;-81
2022/09/13 02:10:50;;;;;;;88.85;37.38;;;;;;;8.34;78.88;100185.66;5093506;28;20483;-80
2022/09/13 02:13:21;;;;;;;78.88;37.25;;;;;;;8.21;79.18;100184.66;5060352;28;20478;-81
2022/09/13 02:15:52;;;;;;;100.72;36.78;;;;;;;8.12;79.57;100179.84;5094704;28;20059;-81
2022/09/13 02:18:24;;;;;;;87.88;42.45;;;;;;;8.10;79.32;100187.91;5076192;28;20131;-80
2022/09/13 02:20:54;;;;;;;95.25;42.20;;;;;;;7.95;79.63;100183.47;5076766;28;20130;-79
2022/09/13 02:23:33;;;;;;;129.57;42.95;;;;;;;7.86;80.30;100184.84;5076186;28;20043;-81
2022/09/13 02:26:03;;;;;;;98.32;40.42;;;;;;;7.90;80.34;100189.03;5092971;28;20039;-80
2022/09/13 02:28:37;;;;;;;134.70;44.83;;;;;;;7.93;80.36;100191.50;5076497;28;20047;-80
2022/09/13 02:31:06;;;;;;;295.30;41.92;;;;;;;7.96;80.46;100186.03;5093012;28;20051;-80
2022/09/13 02:33:35;;;;;;;;;;;;;;;8.00;80.47;100187.56;5076525;28;20036;-79
2022/09/13 02:36:18;;;;;;;306.95;35.83;;;;;;;7.91;80.74;100180.09;5075968;28;19916;-80
2022/09/13 02:38:55;;;;;;;557.47;38.60;;;;;;;7.83;80.82;100177.00;5075980;28;20051;-80
2022/09/13 02:41:29;;;;;;;352.83;30.70;;;;;;;7.92;80.66;100187.13;5092781;28;20040;-80
2022/09/13 02:44:07;;;;;;;408.05;36.88;;;;;;;7.75;81.04;100176.59;5075850;28;20047;-81
2022/09/13 02:47:13;;;;;;;353.50;32.05;;;;;;;7.88;81.09;100193.56;5058923;28;20085;-81
2022/09/13 02:50:01;;;;;;;269.92;30.55;;;;;;;8.18;81.06;100184.81;5092675;28;20059;-78
2022/09/13 02:52:32;;;;;;;356.13;31.52;;;;;;;8.07;80.65;100177.44;5092059;28;20048;-80
2022/09/13 02:55:20;;;;;;;375.00;31.67;;;;;;;8.08;80.64;100194.25;5092962;28;20071;-83
2022/09/13 02:58:13;;;;;;;319.88;32.42;;;;;;;8.14;80.41;100183.28;5092788;28;20048;-81
2022/09/13 03:00:40;;;;;;;391.92;30.98;;;;;;;8.26;80.67;100198.56;5092810;28;20055;-80
2022/09/13 03:03:11;;;;;;;521.85;39.95;;;;;;;8.19;80.43;100199.84;5092255;28;20052;-80
2022/09/13 03:05:37;;;;;;;391.63;32.47;;;;;;;8.05;80.78;100200.66;5075302;28;20047;-79
2022/09/13 03:08:04;;;;;;;288.98;27.95;;;;;;;8.11;80.84;100202.09;5092248;28;20040;-79
2022/09/13 03:10:47;;;;;;;268.60;31.88;;;;;;;8.20;81.18;100198.94;5075505;28;20044;-81
2022/09/13 03:13:16;;;;;;;314.73;30.45;;;;;;;8.22;81.01;100207.66;5075420;28;20047;-80
2022/09/13 03:16:03;;;;;;;284.17;29.65;;;;;;;8.28;81.25;100207.34;5075655;28;20040;-81
2022/09/13 03:18:36;;;;;;;179.95;24.85;;;;;;;8.54;80.76;100199.66;5058701;28;20051;-80
2022/09/13 03:21:11;;;;;;;179.15;25.75;;;;;;;8.59;80.30;100206.47;5092322;28;20043;-81
2022/09/13 03:24:14;;;;;;;209.50;25.25;;;;;;;8.57;80.04;100200.34;5075351;28;20050;-81
2022/09/13 03:27:09;;;;;;;299.00;26.30;;;;;;;8.50;80.05;100209.66;5092285;28;20040;-82
2022/09/13 03:30:01;;;;;;;201.60;24.90;;;;;;;8.49;80.21;100200.78;5074660;28;20100;-80
2022/09/13 03:32:56;;;;;;;204.25;23.70;;;;;;;8.62;79.97;100208.94;5075538;28;20047;-81
2022/09/13 03:35:42;;;;;;;167.95;25.85;;;;;;;8.65;79.89;100205.22;5075096;28;20076;-80
2022/09/13 03:38:16;;;;;;;207.80;28.05;;;;;;;8.55;79.85;100194.25;5075018;28;20051;-85
2022/09/13 03:40:53;;;;;;;190.15;27.80;;;;;;;8.50;80.08;100197.19;5093014;28;20043;-86
2022/09/13 03:43:34;;;;;;;75.72;23.38;;;;;;;8.80;79.98;100207.03;5091548;28;20044;-78
2022/09/13 03:46:23;;;;;;;71.68;25.10;;;;;;;8.91;79.68;100201.91;5089756;28;20143;-78
2022/09/13 03:48:50;;;;;;;67.22;23.33;;;;;;;8.92;79.10;100213.44;5092403;28;20138;-80
2022/09/13 03:51:16;;;;;;;77.80;23.20;;;;;;;8.91;79.21;100209.03;5075398;28;20567;-81
2022/09/13 03:53:51;;;;;;;70.40;24.35;;;;;;;9.12;78.71;100193.56;5091293;28;20044;-79
2022/09/13 03:56:19;;;;;;;65.03;24.65;;;;;;;9.31;78.45;100198.63;5057911;28;20043;-83
2022/09/13 03:58:46;;;;;;;61.88;22.95;;;;;;;9.58;77.88;100202.25;5092899;28;20427;-82
2022/09/13 04:01:13;;;;;;;63.45;23.30;;;;;;;9.68;77.53;100205.22;5091409;28;20461;-82
2022/09/13 04:03:38;;;;;;;77.10;25.20;;;;;;;9.84;77.00;100203.31;5072661;28;20392;-83
2022/09/13 04:06:05;;;;;;;62.17;22.52;;;;;;;9.87;76.68;100194.25;5087329;28;20095;-83
2022/09/13 04:08:32;;;;;;;52.88;21.45;;;;;;;9.98;75.83;100194.41;5058223;28;20047;-81
2022/09/13 04:10:58;;;;;;;49.42;18.23;;;;;;;9.96;75.33;100202.50;5074824;28;20138;-85
2022/09/13 04:13:24;;;;;;;53.95;19.13;;;;;;;10.02;75.38;100209.28;5074203;28;20140;-83
2022/09/13 04:15:50;;;;;;;61.35;20.13;;;;;;;10.16;75.27;100203.06;5074332;28;20043;-84
2022/09/13 04:18:16;;;;;;;48.15;19.17;;;;;;;10.30;75.21;100199.53;5074709;28;20043;-78
2022/09/13 04:20:42;;;;;;;53.97;19.85;;;;;;;10.41;74.52;100208.53;5084837;28;20044;-83
2022/09/13 04:23:08;;;;;;;50.30;19.17;;;;;;;10.64;74.87;100203.50;5081310;28;20526;-85
2022/09/13 04:25:39;;;;;;;47.47;18.58;;;;;;;10.82;74.34;100196.91;5091158;28;20048;-82
2022/09/13 04:28:05;;;;;;;54.47;18.05;;;;;;;11.07;73.99;100190.78;5073676;28;20142;-80
2022/09/13 04:30:31;;;;;;;48.85;15.30;;;;;;;11.18;73.08;100182.00;5091746;28;20051;-81
2022/09/13 04:32:58;;;;;;;34.75;13.90;;;;;;;11.30;72.80;100194.53;5074168;28;20449;-81
2022/09/13 04:35:25;;;;;;;36.30;13.32;;;;;;;11.25;71.22;100188.66;5091037;28;20437;-80
2022/09/13 04:37:55;;;;;;;33.40;13.82;;;;;;;11.33;71.06;100180.94;5091863;28;20044;-81
2022/09/13 04:40:22;;;;;;;37.75;13.40;;;;;;;11.42;70.12;100177.59;5091754;28;20079;-83
2022/09/13 04:42:48;;;;;;;43.50;12.23;;;;;;;11.62;70.46;100186.94;5091887;28;20045;-81
2022/09/13 04:45:14;;;;;;;40.15;11.57;;;;;;;11.78;69.75;100169.75;5072821;28;20040;-80
2022/09/13 04:47:40;;;;;;;36.85;7.88;;;;;;;11.75;67.39;100180.69;5077044;28;20093;-79
2022/09/13 04:50:06;;;;;;;29.60;9.80;;;;;;;11.86;67.54;100178.13;5077311;28;20048;-81
2022/09/13 04:52:32;;;;;;;33.90;7.45;;;;;;;11.78;66.21;100170.63;5095866;28;20079;-82
2022/09/13 04:55:00;;;;;;;18.23;6.68;;;;;;;11.66;65.17;100176.84;5094280;28;20044;-82
2022/09/13 04:57:27;;;;;;;24.00;7.00;;;;;;;11.62;65.49;100172.66;5076153;28;20090;-77
2022/09/13 04:59:53;;;;;;;17.48;5.82;;;;;;;11.56;65.51;100189.19;5092734;28;20047;-83
2022/09/13 05:02:19;;;;;;;18.83;6.47;;;;;;;11.82;66.04;100177.47;5076824;28;20414;-83
2022/09/13 05:04:45;;;;;;;16.52;6.03;;;;;;;12.21;66.48;100177.38;5095787;28;20051;-81
2022/09/13 05:07:11;;;;;;;6.88;3.92;;;;;;;12.53;64.68;100177.69;5078039;28;20048;-83
2022/09/13 05:09:36;;;;;;;6.68;3.60;;;;;;;12.63;64.38;100181.38;5093605;28;20040;-84
2022/09/13 05:12:02;;;;;;;4.60;3.03;;;;;;;12.89;64.27;100180.25;5076183;28;20036;-81
2022/09/13 05:14:28;;;;;;;7.40;3.40;;;;;;;13.18;63.36;100181.69;5087973;28;20045;-83
2022/09/13 05:16:54;;;;;;;3.97;3.22;;;;;;;13.40;62.96;100179.06;5082993;28;20138;-82
2022/09/13 05:19:20;;;;;;;3.42;2.40;;;;;;;13.37;60.08;100173.94;5057064;28;20044;-79
2022/09/13 05:21:46;;;;;;;5.85;2.90;;;;;;;13.45;60.50;100165.28;5073548;28;20054;-81
2022/09/13 05:24:11;;;;;;;6.68;2.80;;;;;;;13.70;59.53;100183.84;5073791;28;20068;-81
2022/09/13 05:26:37;;;;;;;4.63;2.20;;;;;;;13.70;59.10;100170.41;5077718;28;20044;-80
2022/09/13 05:29:04;;;;;;;2.97;2.20;;;;;;;13.67;58.21;100164.44;5079814;28;20036;-82
2022/09/13 05:31:35;;;;;;;3.60;2.67;;;;;;;13.66;57.46;100178.84;5056820;28;20041;-80
2022/09/13 05:34:04;;;;;;;4.03;3.20;;;;;;;13.59;56.91;100189.22;5073230;28;20131;-80
2022/09/13 05:36:30;;;;;;;;;;;;;;;13.77;57.60;100186.91;5057011;28;20488;-80
2022/09/13 05:38:57;;;;;;;6.97;2.80;;;;;;;13.72;57.43;100184.56;5073058;28;20033;-81
2022/09/13 05:41:23;;;;;;;3.33;2.85;;;;;;;13.90;56.67;100186.75;5072763;28;20044;-81
2022/09/13 05:43:49;;;;;;;4.40;3.20;;;;;;;13.87;56.09;100192.38;5057270;28;20097;-80
2022/09/13 05:46:18;;;;;;;3.60;3.00;;;;;;;14.05;57.15;100197.13;5073412;28;20040;-80
2022/09/13 05:48:45;;;;;;;5.55;3.75;;;;;;;14.30;56.67;100196.00;5056875;28;20567;-81
2022/09/13 05:51:15;;;;;;;5.63;3.60;;;;;;;14.46;56.42;100202.81;5041531;28;20444;-79
2022/09/13 05:53:44;;;;;;;5.10;3.15;;;;;;;14.60;56.31;100204.41;5072710;28;20076;-80
2022/09/13 05:56:16;;;;;;;3.70;3.40;;;;;;;14.79;55.76;100197.34;5073336;28;20131;-80
2022/09/13 05:58:45;;;;;;;8.43;3.20;;;;;;;14.75;54.40;100198.56;5074560;28;20286;-80
2022/09/13 06:01:12;;;;;;;4.03;2.87;;;;;;;14.82;54.13;100202.47;5074927;28;20484;-80
2022/09/13 06:03:38;;;;;;;5.68;3.78;;;;;;;14.95;53.90;100206.81;5077974;28;20052;-80
2022/09/13 06:06:04;;;;;;;4.50;3.75;;;;;;;14.96;53.96;100211.19;5084599;28;20506;-79
2022/09/13 06:08:32;;;;;;;25.13;7.75;;;;;;;15.13;54.65;100199.88;5076955;28;20043;-83
2022/09/13 06:10:58;;;;;;;4.05;3.65;;;;;;;15.26;53.72;100195.13;5094967;28;20052;-84
2022/09/13 06:13:24;;;;;;;4.90;3.72;;;;;;;15.31;52.98;100197.44;5093299;28;20529;-78
2022/09/13 06:15:51;;;;;;;6.55;4.38;;;;;;;15.42;53.61;100200.06;5094757;28;20526;-79
2022/09/13 06:18:18;;;;;;;8.57;3.40;;;;;;;15.45;52.72;100204.31;5076308;28;20036;-80
2022/09/13 06:20:44;;;;;;;7.38;3.45;;;;;;;15.57;52.25;100203.25;5092991;28;20495;-79
2022/09/13 06:23:10;;;;;;;5.47;3.58;;;;;;;15.74;52.42;100207.19;5094893;28;20062;-77
2022/09/13 06:25:37;;;;;;;7.80;3.85;;;;;;;15.93;52.48;100209.13;5092917;28;20051;-78
2022/09/13 06:28:03;;;;;;;7.00;3.38;;;;;;;16.05;51.75;100202.63;5076133;28;20039;-81
2022/09/13 06:30:29;;;;;;;3.28;2.97;;;;;;;16.14;50.59;100191.03;5092984;28;20040;-80
2022/09/13 06:32:56;;;;;;;5.05;3.13;;;;;;;16.12;50.73;100190.31;5093266;28;20055;-79
2022/09/13 06:35:22;;;;;;;4.75;3.15;;;;;;;15.98;49.33;100190.69;5076361;28;20109;-78
2022/09/13 06:37:48;;;;;;;6.00;2.90;;;;;;;15.95;50.19;100180.19;5093558;28;20048;-78
2022/09/13 06:40:15;;;;;;;4.03;2.63;;;;;;;16.19;50.57;100175.28;5092656;28;20530;-81
2022/09/13 06:42:42;;;;;;;5.47;3.03;;;;;;;16.33;49.71;100173.19;5071627;28;20119;-83
2022/09/13 06:45:11;;;;;;;6.35;3.10;;;;;;;16.34;49.12;100170.34;5062754;28;20466;-81
2022/09/13 06:47:37;;;;;;;;;;;;;;;16.53;49.05;100180.31;5072809;28;20094;-83
2022/09/13 06:50:03;;;;;;;6.05;3.05;;;;;;;16.59;49.21;100170.81;5072727;28;20334;-87
2022/09/13 06:52:29;;;;;;;5.03;3.03;;;;;;;16.64;48.58;100177.47;5038721;28;20063;-82
2022/09/13 06:54:55;;;;;;;3.40;2.90;;;;;;;16.80;47.54;100179.63;5072610;28;20519;-82
2022/09/13 06:57:21;;;;;;;6.22;2.50;;;;;;;16.82;47.99;100187.63;5055790;28;20040;-81
2022/09/13 06:59:47;;;;;;;4.28;3.03;;;;;;;16.85;47.74;100179.19;5072069;28;20094;-81
2022/09/13 07:02:15;;;;;;;3.78;2.67;;;;;;;16.93;47.67;100182.91;5072824;28;20060;-81
2022/09/13 07:04:41;;;;;;;3.00;2.67;;;;;;;17.01;46.06;100181.34;5072951;28;20055;-80
2022/09/13 07:07:07;;;;;;;6.68;2.75;;;;;;;16.87;46.51;100179.91;5055436;28;20477;-82
2022/09/13 07:09:33;;;;;;;3.15;2.85;;;;;;;16.85;46.69;100179.19;5072285;28;20131;-80
2022/09/13 07:11:59;;;;;;;4.05;2.70;;;;;;;16.93;46.89;100173.97;5073444;28;20410;-80
2022/09/13 07:14:27;;;;;;;3.72;2.92;;;;;;;17.10;46.78;100166.97;5055434;28;20127;-79
2022/09/13 07:16:54;;;;;;;3.10;2.47;;;;;;;17.31;46.88;100178.44;5071891;28;20537;-81
2022/09/13 07:19:22;;;;;;;2.58;2.38;;;;;;;17.46;45.94;100184.25;5055647;28;20075;-81
2022/09/13 07:21:49;;;;;;;2.60;2.40;;;;;;;17.35;45.68;100168.19;5071818;28;20047;-81
2022/09/13 07:24:16;;;;;;;3.17;2.40;;;;;;;17.51;44.75;100171.13;5072747;28;20051;-80
2022/09/13 07:26:43;;;;;;;6.03;2.70;;;;;;;17.65;44.02;100177.94;5072882;28;20048;-81
2022/09/13 07:29:13;;;;;;;5.03;3.63;;;;;;;17.64;43.63;100171.69;5054983;28;20485;-81
2022/09/13 07:31:42;;;;;;;3.15;2.70;;;;;;;17.75;43.77;100167.06;5055217;28;20605;-81
2022/09/13 07:34:14;;;;;;;2.92;2.70;;;;;;;17.92;44.11;100177.13;5054782;28;20036;-80
2022/09/13 07:36:40;;;;;;;5.50;3.10;;;;;;;18.11;43.97;100173.47;5071926;28;20143;-80
2022/09/13 07:39:07;;;;;;;2.60;2.40;;;;;;;18.19;41.69;100166.28;5071673;28;20048;-82
2022/09/13 07:41:34;;;;;;;4.05;2.70;;;;;;;18.12;41.78;100158.94;5054931;28;20036;-81
2022/09/13 07:44:00;;;;;;;6.65;2.90;;;;;;;17.99;41.30;100132.25;5071357;28;20396;-81
2022/09/13 07:46:31;;;;;;;3.38;2.60;;;;;;;18.15;41.43;100156.78;5054879;28;20037;-82
2022/09/13 07:48:59;;;;;;;5.40;2.70;;;;;;;18.19;42.22;100150.06;5071290;28;20048;-79
2022/09/13 07:51:28;;;;;;;3.08;2.58;;;;;;;18.41;42.86;100154.19;5054591;28;20067;-80
2022/09/13 07:53:56;;;;;;;3.08;2.80;;;;;;;18.56;40.83;100151.81;5054239;28;20594;-80
2022/09/13 07:56:28;;;;;;;6.47;3.67;;;;;;;18.68;41.44;100155.97;5037959;28;20504;-80
2022/09/13 07:58:54;;;;;;;3.35;2.40;;;;;;;18.91;41.25;100139.28;5037803;28;20092;-80
2022/09/13 08:01:28;;;;;;;2.45;2.20;;;;;;;19.23;40.93;100149.53;5054420;28;20044;-80
2022/09/13 08:03:58;;;;;;;11.07;2.30;;;;;;;18.78;38.78;100134.25;5071448;28;20052;-80
2022/09/13 08:06:26;;;;;;;5.63;2.20;;;;;;;18.76;39.62;100140.84;5071084;28;20045;-80
2022/09/13 08:08:53;;;;;;;4.18;2.20;;;;;;;18.72;39.64;100140.28;5037724;28;20045;-82
2022/09/13 08:11:24;;;;;;;2.50;2.13;;;;;;;18.65;39.17;100133.75;5072588;28;20052;-79
2022/09/13 08:13:51;;;;;;;2.45;2.25;;;;;;;19.10;40.01;100133.66;5054474;28;20482;-80
2022/09/13 08:16:23;;;;;;;2.85;2.00;;;;;;;19.48;38.88;100126.09;5073405;28;20052;-79
2022/09/13 08:18:51;;;;;;;2.58;2.35;;;;;;;19.61;38.36;100118.38;5075434;28;20037;-80
2022/09/13 08:21:17;;;;;;;2.20;2.03;;;;;;;19.74;38.01;100122.53;5075384;28;20066;-80
2022/09/13 08:23:43;;;;;;;2.20;2.00;;;;;;;19.92;38.35;100128.72;5076340;28;20040;-80
2022/09/13 08:26:13;;;;;;;5.65;1.98;;;;;;;19.97;37.53;100104.69;5076175;28;20078;-81
2022/09/13 08:28:40;;;;;;;2.63;2.22;;;;;;;19.95;36.81;100106.69;5076233;28;20454;-80
2022/09/13 08:31:09;;;;;;;4.70;2.20;;;;;;;19.86;37.13;100118.53;5058199;28;20037;-79
2022/09/13 08:33:36;;;;;;;3.83;1.90;;;;;;;20.10;37.09;100118.59;5074936;28;20066;-81
2022/09/13 08:36:03;;;;;;;1.90;1.80;;;;;;;20.16;36.85;100108.09;5074788;28;20049;-80
2022/09/13 08:38:30;;;;;;;2.40;2.00;;;;;;;20.34;36.76;100115.09;5058004;28;20463;-81
2022/09/13 08:40:59;;;;;;;9.25;2.20;;;;;;;20.62;36.67;100114.84;5075197;28;20135;-80
2022/09/13 08:43:43;;;;;;;;;;;;;;;20.96;36.61;100125.53;5058370;28;20135;-79
2022/09/13 08:46:09;;;;;;;2.30;2.10;;;;;;;20.90;35.96;100111.78;5041456;28;19921;-79
2022/09/13 08:48:43;;;;;;;2.17;2.00;;;;;;;20.89;35.59;100113.66;5074255;28;20093;-80
2022/09/13 08:51:31;;;;;;;2.15;2.05;;;;;;;20.97;35.51;100113.63;5041189;28;20109;-80
2022/09/13 08:53:58;;;;;;;2.70;2.08;;;;;;;21.03;35.39;100117.56;5058092;28;20037;-80
2022/09/13 08:56:34;;;;;;;2.35;1.90;;;;;;;21.07;35.37;100119.75;5074637;28;20052;-81
2022/09/13 08:59:22;;;;;;;2.28;2.05;;;;;;;21.25;35.04;100114.13;5074724;28;20040;-82
2022/09/13 09:02:15;;;;;;;4.03;2.03;;;;;;;21.30;34.23;100097.28;5074842;28;20080;-82
2022/09/13 09:04:55;;;;;;;2.33;2.00;;;;;;;21.35;34.73;100100.34;5057657;28;20124;-82
2022/09/13 09:07:36;;;;;;;2.38;2.17;;;;;;;21.14;34.55;100100.00;5057721;28;20064;-81
2022/09/13 09:10:22;;;;;;;2.25;1.92;;;;;;;21.40;34.38;100092.53;5074501;28;20080;-81
2022/09/13 09:12:51;;;;;;;4.82;2.22;;;;;;;21.34;34.04;100079.63;5057620;28;20044;-80
2022/09/13 09:15:22;;;;;;;2.30;2.13;;;;;;;21.68;33.76;100089.38;5040742;28;20051;-80
2022/09/13 09:17:58;;;;;;;2.58;2.08;;;;;;;21.76;32.36;100081.16;5074367;28;20056;-85
2022/09/13 09:20:32;;;;;;;39.63;2.78;;;;;;;21.36;31.99;100069.41;5074793;28;20052;-79
2022/09/13 09:23:06;;;;;;;5.43;2.30;;;;;;;20.93;33.47;100078.81;5075448;28;20047;-84
2022/09/13 09:25:33;;;;;;;2.22;2.03;;;;;;;20.92;33.35;100067.09;5074064;28;20053;-79
2022/09/13 09:28:00;;;;;;;2.00;1.90;;;;;;;21.31;33.42;100060.91;5072605;28;20135;-84
2022/09/13 09:30:44;;;;;;;2.45;2.25;;;;;;;21.78;32.42;100060.91;5039033;28;20103;-80
2022/09/13 09:33:27;;;;;;;3.85;1.80;;;;;;;22.37;31.96;100068.56;5058461;28;20055;-80
2022/09/13 09:36:10;;;;;;;2.20;2.00;;;;;;;23.04;30.75;100070.59;5077410;28;20040;-87
2022/09/13 09:38:39;;;;;;;4.93;2.33;;;;;;;23.49;30.38;100057.81;5094060;28;20139;-79
2022/09/13 09:41:31;;;;;;;;;;;;;;;23.85;29.25;100057.91;5095838;28;20043;-79
2022/09/13 09:44:00;;;;;;;3.03;1.98;;;;;;;23.76;28.53;100050.84;5094746;28;19916;-77
2022/09/13 09:46:29;;;;;;;;;;;;;;;24.01;28.13;100053.25;5093188;28;20048;-78
2022/09/13 09:52:07;;;;;;;2.30;2.10;;;;;;;23.80;27.55;100038.50;5094844;28;20063;-83
2022/09/13 09:54:35;;;;;;;5.18;2.08;;;;;;;23.94;28.04;100045.81;5093195;28;20036;-82
2022/09/13 09:57:01;;;;;;;2.10;1.60;;;;;;;24.12;27.16;100031.75;5076347;28;20138;-79
2022/09/13 09:59:31;;;;;;;2.30;1.90;;;;;;;24.49;27.12;100026.25;5075248;28;20036;-79
2022/09/13 10:01:59;;;;;;;3.83;1.98;;;;;;;24.74;26.41;100016.56;5073068;28;20135;-79
2022/09/13 10:04:25;;;;;;;4.13;1.83;;;;;;;24.90;26.30;100023.66;5085129;28;20055;-79
2022/09/13 10:07:10;;;;;;;2.90;1.70;;;;;;;25.11;25.58;100020.03;5059621;28;20068;-80
2022/09/13 10:09:38;;;;;;;1.90;1.80;;;;;;;25.18;24.61;100012.69;5092926;28;20038;-76
2022/09/13 10:12:05;;;;;;;1.73;1.63;;;;;;;25.24;24.95;100019.25;5076223;28;20044;-80
2022/09/13 10:14:41;;;;;;;4.50;1.75;;;;;;;25.49;23.89;100014.13;5075751;28;20044;-79
2022/09/13 10:17:23;;;;;;;1.80;1.70;;;;;;;25.81;23.99;100010.72;5093017;28;20062;-78
2022/09/13 10:19:53;;;;;;;2.35;1.70;;;;;;;25.76;23.46;100015.91;5094129;28;20052;-80
2022/09/13 10:22:29;;;;;;;1.60;1.50;;;;;;;25.66;23.59;100012.72;5075865;28;20049;-78
2022/09/13 10:25:13;;;;;;;1.83;1.73;;;;;;;25.61;24.03;100010.63;5059742;28;20486;-79
2022/09/13 10:27:47;;;;;;;2.10;1.95;;;;;;;25.79;24.00;100018.28;5093826;28;20040;-78
2022/09/13 10:30:37;;;;;;;1.70;1.60;;;;;;;25.96;23.49;100006.97;5075266;28;20044;-78
2022/09/13 10:33:05;;;;;;;1.88;1.70;;;;;;;26.07;23.46;100009.09;5083627;28;20055;-79
2022/09/13 10:35:32;;;;;;;1.70;1.60;;;;;;;25.87;23.57;100015.34;5087678;28;20040;-81
2022/09/13 10:37:58;;;;;;;2.47;1.63;;;;;;;26.22;22.68;99989.75;5075333;28;20052;-79
2022/09/13 10:40:33;;;;;;;1.70;1.60;;;;;;;26.56;22.29;100006.03;5075154;28;20139;-79
2022/09/13 10:43:03;;;;;;;1.83;1.73;;;;;;;26.80;22.45;100009.19;5085668;28;20100;-79
2022/09/13 10:45:30;;;;;;;1.65;1.55;;;;;;;27.06;22.05;100002.81;5072269;28;20116;-80
2022/09/13 10:48:08;;;;;;;1.60;1.50;;;;;;;26.79;21.29;100002.84;5084565;28;20532;-79
2022/09/13 10:50:35;;;;;;;4.80;1.40;;;;;;;26.56;22.51;100013.41;5075204;28;20056;-79
2022/09/13 10:53:03;;;;;;;1.90;1.67;;;;;;;27.17;21.56;100012.31;5067307;28;20046;-75
2022/09/13 10:55:39;;;;;;;2.22;1.48;;;;;;;27.47;20.89;100009.91;5055794;28;20602;-80
2022/09/13 10:58:07;;;;;;;2.90;1.42;;;;;;;27.83;20.82;100014.84;5039671;28;20032;-79
2022/09/13 11:01:10;;;;;;;2.05;1.35;;;;;;;28.21;20.21;100022.22;5071432;28;20380;-81
2022/09/13 11:03:39;;;;;;;2.67;1.70;;;;;;;28.53;20.03;100009.34;5073103;28;20053;-78
2022/09/13 11:06:27;;;;;;;4.15;1.50;;;;;;;28.78;19.35;100018.47;5055165;28;20493;-77
2022/09/13 11:09:12;;;;;;;3.10;1.98;;;;;;;29.01;19.74;100019.75;5073218;28;20051;-79
2022/09/13 11:11:56;;;;;;;2.35;1.70;;;;;;;29.06;19.73;100014.41;5055223;28;20048;-80
2022/09/13 11:14:22;;;;;;;1.38;1.27;;;;;;;28.49;19.83;100008.97;5072313;28;20052;-88
2022/09/13 11:16:56;;;;;;;2.67;1.45;;;;;;;27.65;21.04;100006.47;5074979;28;20553;-89
2022/09/13 11:19:41;;;;;;;4.10;1.58;;;;;;;26.89;21.86;100013.38;5074590;28;20044;-96
2022/09/13 11:22:31;;;;;;;3.03;1.60;;;;;;;26.39;22.24;99997.31;5082509;28;20037;-82
2022/09/13 11:25:16;;;;;;;2.53;2.00;;;;;;;26.00;23.03;100008.25;5088006;28;20039;-80
2022/09/13 11:27:42;;;;;;;4.18;1.75;;;;;;;25.43;23.06;100007.59;5092003;28;20040;-80
2022/09/13 11:30:13;;;;;;;1.67;1.58;;;;;;;25.04;22.54;99992.59;5092218;28;20142;-79
2022/09/13 11:32:57;;;;;;;1.80;1.63;;;;;;;24.52;23.59;99982.94;5074647;28;20055;-83
2022/09/13 11:35:54;;;;;;;6.00;1.98;;;;;;;24.79;23.44;99992.22;5092689;28;20048;-80
2022/09/13 11:38:32;;;;;;;3.60;2.00;;;;;;;25.39;23.28;99985.25;5091252;28;20040;-81
2022/09/13 11:41:07;;;;;;;4.88;2.17;;;;;;;25.53;23.41;99980.66;5074499;28;20055;-76
2022/09/13 11:43:58;;;;;;;1.98;1.77;;;;;;;25.70;22.17;99986.63;5073482;28;20138;-80
2022/09/13 11:47:05;;;;;;;3.45;1.48;;;;;;;24.91;22.42;99982.41;5088820;28;20060;-84
2022/09/13 11:49:59;;;;;;;1.80;1.67;;;;;;;25.58;22.11;99974.59;5089723;28;20040;-83